sensor_id;sensor_type;location;lat;lon;timestamp;P1;durP1;ratioP1;P2;durP2;ratioP2
16579;SDS011;8402;51.466;6.806;2023-04-23T00:00:52;47.03;;;23.73;;
16579;SDS011;8402;51.466;6.806;2023-04-23T00:03:23;43.83;;;23.03;;
16579;SDS011;8402;51.466;6.806;2023-04-23T00:05:55;50.13;;;24.60;;
16579;SDS011;8402;51.466;6.806;2023-04-23T00:08:29;48.43;;;24.27;;
16579;SDS011;8402;51.466;6.806;2023-04-23T00:11:00;46.63;;;24.77;;
16579;SDS011;8402;51.466;6.806;2023-04-23T00:13:31;50.60;;;24.43;;
16579;SDS011;8402;51.466;6.806;2023-04-23T00:16:02;48.07;;;23.53;;
16579;SDS011;8402;51.466;6.806;2023-04-23T00:18:32;53.27;;;24.03;;
16579;SDS011;8402;51.466;6.806;2023-04-23T00:21:03;49.57;;;25.33;;
16579;SDS011;8402;51.466;6.806;2023-04-23T00:23:36;45.73;;;24.17;;
16579;SDS011;8402;51.466;6.806;2023-04-23T00:26:07;48.43;;;24.43;;
16579;SDS011;8402;51.466;6.806;2023-04-23T00:28:37;49.47;;;25.23;;
16579;SDS011;8402;51.466;6.806;2023-04-23T00:31:07;48.67;;;24.73;;
16579;SDS011;8402;51.466;6.806;2023-04-23T00:33:37;49.67;;;24.80;;
16579;SDS011;8402;51.466;6.806;2023-04-23T00:36:07;49.33;;;24.83;;
16579;SDS011;8402;51.466;6.806;2023-04-23T00:38:40;50.67;;;24.67;;
16579;SDS011;8402;51.466;6.806;2023-04-23T00:41:10;47.37;;;24.27;;
16579;SDS011;8402;51.466;6.806;2023-04-23T00:43:40;52.13;;;24.53;;
16579;SDS011;8402;51.466;6.806;2023-04-23T00:46:11;49.43;;;24.30;;
16579;SDS011;8402;51.466;6.806;2023-04-23T00:48:42;47.03;;;24.23;;
16579;SDS011;8402;51.466;6.806;2023-04-23T00:51:14;48.73;;;24.53;;
16579;SDS011;8402;51.466;6.806;2023-04-23T00:53:48;45.43;;;23.90;;
16579;SDS011;8402;51.466;6.806;2023-04-23T00:56:18;48.43;;;24.03;;
16579;SDS011;8402;51.466;6.806;2023-04-23T00:58:49;45.10;;;23.70;;
16579;SDS011;8402;51.466;6.806;2023-04-23T01:01:20;48.67;;;23.93;;
16579;SDS011;8402;51.466;6.806;2023-04-23T01:03:51;47.13;;;23.73;;
16579;SDS011;8402;51.466;6.806;2023-04-23T01:06:22;46.67;;;23.77;;
16579;SDS011;8402;51.466;6.806;2023-04-23T01:08:57;48.47;;;24.37;;
16579;SDS011;8402;51.466;6.806;2023-04-23T01:11:27;47.20;;;22.27;;
16579;SDS011;8402;51.466;6.806;2023-04-23T01:13:57;44.90;;;22.97;;
16579;SDS011;8402;51.466;6.806;2023-04-23T01:16:27;48.13;;;22.70;;
16579;SDS011;8402;51.466;6.806;2023-04-23T01:18:57;51.83;;;24.00;;
16579;SDS011;8402;51.466;6.806;2023-04-23T01:21:28;48.03;;;23.30;;
16579;SDS011;8402;51.466;6.806;2023-04-23T01:24:01;43.57;;;22.47;;
16579;SDS011;8402;51.466;6.806;2023-04-23T01:26:32;46.63;;;22.93;;
16579;SDS011;8402;51.466;6.806;2023-04-23T01:29:02;42.60;;;22.17;;
16579;SDS011;8402;51.466;6.806;2023-04-23T01:31:32;41.00;;;22.27;;
16579;SDS011;8402;51.466;6.806;2023-04-23T01:34:02;45.43;;;22.73;;
16579;SDS011;8402;51.466;6.806;2023-04-23T01:36:32;47.10;;;24.03;;
16579;SDS011;8402;51.466;6.806;2023-04-23T01:39:06;47.13;;;22.13;;
16579;SDS011;8402;51.466;6.806;2023-04-23T01:41:37;47.17;;;22.07;;
16579;SDS011;8402;51.466;6.806;2023-04-23T01:44:08;40.20;;;21.20;;
16579;SDS011;8402;51.466;6.806;2023-04-23T01:46:38;39.53;;;20.10;;
16579;SDS011;8402;51.466;6.806;2023-04-23T01:49:08;45.23;;;21.87;;
16579;SDS011;8402;51.466;6.806;2023-04-23T01:51:39;41.93;;;21.17;;
16579;SDS011;8402;51.466;6.806;2023-04-23T01:54:12;37.87;;;20.27;;
16579;SDS011;8402;51.466;6.806;2023-04-23T01:56:42;37.93;;;18.53;;
16579;SDS011;8402;51.466;6.806;2023-04-23T01:59:12;37.13;;;19.60;;
16579;SDS011;8402;51.466;6.806;2023-04-23T02:01:42;36.67;;;18.97;;
16579;SDS011;8402;51.466;6.806;2023-04-23T02:04:14;36.97;;;18.93;;
16579;SDS011;8402;51.466;6.806;2023-04-23T02:06:46;37.80;;;18.40;;
16579;SDS011;8402;51.466;6.806;2023-04-23T02:09:21;39.57;;;18.63;;
16579;SDS011;8402;51.466;6.806;2023-04-23T02:11:50;35.33;;;19.57;;
16579;SDS011;8402;51.466;6.806;2023-04-23T02:14:20;37.67;;;18.80;;
16579;SDS011;8402;51.466;6.806;2023-04-23T02:16:51;33.47;;;18.50;;
16579;SDS011;8402;51.466;6.806;2023-04-23T02:19:21;35.03;;;18.20;;
16579;SDS011;8402;51.466;6.806;2023-04-23T02:21:52;31.70;;;16.77;;
16579;SDS011;8402;51.466;6.806;2023-04-23T02:24:24;34.47;;;17.13;;
16579;SDS011;8402;51.466;6.806;2023-04-23T02:26:54;37.90;;;18.70;;
16579;SDS011;8402;51.466;6.806;2023-04-23T02:29:25;35.00;;;16.97;;
16579;SDS011;8402;51.466;6.806;2023-04-23T02:31:55;32.83;;;17.07;;
16579;SDS011;8402;51.466;6.806;2023-04-23T02:34:25;34.30;;;17.00;;
16579;SDS011;8402;51.466;6.806;2023-04-23T02:36:55;30.83;;;16.17;;
16579;SDS011;8402;51.466;6.806;2023-04-23T02:39:27;31.27;;;15.60;;
16579;SDS011;8402;51.466;6.806;2023-04-23T02:41:58;32.23;;;17.37;;
16579;SDS011;8402;51.466;6.806;2023-04-23T02:44:28;36.80;;;16.13;;
16579;SDS011;8402;51.466;6.806;2023-04-23T02:46:57;29.63;;;16.17;;
16579;SDS011;8402;51.466;6.806;2023-04-23T02:49:28;34.60;;;15.50;;
16579;SDS011;8402;51.466;6.806;2023-04-23T02:51:58;32.80;;;16.23;;
16579;SDS011;8402;51.466;6.806;2023-04-23T02:54:30;30.93;;;15.87;;
16579;SDS011;8402;51.466;6.806;2023-04-23T02:57:02;26.63;;;14.67;;
16579;SDS011;8402;51.466;6.806;2023-04-23T02:59:32;29.67;;;15.93;;
16579;SDS011;8402;51.466;6.806;2023-04-23T03:02:02;28.57;;;15.13;;
16579;SDS011;8402;51.466;6.806;2023-04-23T03:04:32;29.70;;;14.83;;
16579;SDS011;8402;51.466;6.806;2023-04-23T03:07:03;29.40;;;15.80;;
16579;SDS011;8402;51.466;6.806;2023-04-23T03:09:35;33.27;;;15.40;;
16579;SDS011;8402;51.466;6.806;2023-04-23T03:12:05;30.27;;;15.03;;
16579;SDS011;8402;51.466;6.806;2023-04-23T03:14:36;28.23;;;16.50;;
16579;SDS011;8402;51.466;6.806;2023-04-23T03:17:06;30.47;;;15.90;;
16579;SDS011;8402;51.466;6.806;2023-04-23T03:19:36;33.00;;;16.63;;
16579;SDS011;8402;51.466;6.806;2023-04-23T03:22:06;29.47;;;16.30;;
16579;SDS011;8402;51.466;6.806;2023-04-23T03:24:39;28.80;;;15.70;;
16579;SDS011;8402;51.466;6.806;2023-04-23T03:27:09;31.00;;;16.77;;
16579;SDS011;8402;51.466;6.806;2023-04-23T03:29:39;31.80;;;15.80;;
16579;SDS011;8402;51.466;6.806;2023-04-23T03:32:09;29.40;;;16.07;;
16579;SDS011;8402;51.466;6.806;2023-04-23T03:34:40;31.67;;;16.00;;
16579;SDS011;8402;51.466;6.806;2023-04-23T03:37:12;43.43;;;17.37;;
16579;SDS011;8402;51.466;6.806;2023-04-23T03:39:45;31.37;;;16.00;;
16579;SDS011;8402;51.466;6.806;2023-04-23T03:42:15;29.87;;;16.33;;
16579;SDS011;8402;51.466;6.806;2023-04-23T03:44:45;32.23;;;17.07;;
16579;SDS011;8402;51.466;6.806;2023-04-23T03:47:15;27.60;;;14.87;;
16579;SDS011;8402;51.466;6.806;2023-04-23T03:49:45;35.17;;;17.13;;
16579;SDS011;8402;51.466;6.806;2023-04-23T03:52:15;31.73;;;16.83;;
16579;SDS011;8402;51.466;6.806;2023-04-23T03:54:48;30.80;;;16.60;;
16579;SDS011;8402;51.466;6.806;2023-04-23T03:57:19;31.30;;;16.47;;
16579;SDS011;8402;51.466;6.806;2023-04-23T03:59:49;30.43;;;16.13;;
16579;SDS011;8402;51.466;6.806;2023-04-23T04:02:19;28.40;;;15.13;;
16579;SDS011;8402;51.466;6.806;2023-04-23T04:04:50;31.70;;;15.70;;
16579;SDS011;8402;51.466;6.806;2023-04-23T04:07:20;27.63;;;15.37;;
16579;SDS011;8402;51.466;6.806;2023-04-23T04:09:54;30.57;;;15.33;;
16579;SDS011;8402;51.466;6.806;2023-04-23T04:12:23;26.33;;;14.43;;
16579;SDS011;8402;51.466;6.806;2023-04-23T04:14:54;25.23;;;14.10;;
16579;SDS011;8402;51.466;6.806;2023-04-23T04:17:24;33.53;;;14.67;;
16579;SDS011;8402;51.466;6.806;2023-04-23T04:19:54;24.00;;;13.70;;
16579;SDS011;8402;51.466;6.806;2023-04-23T04:22:24;28.00;;;14.50;;
16579;SDS011;8402;51.466;6.806;2023-04-23T04:24:56;22.67;;;13.43;;
16579;SDS011;8402;51.466;6.806;2023-04-23T04:27:26;32.60;;;14.60;;
16579;SDS011;8402;51.466;6.806;2023-04-23T04:29:58;28.47;;;14.70;;
16579;SDS011;8402;51.466;6.806;2023-04-23T04:32:31;29.80;;;14.00;;
16579;SDS011;8402;51.466;6.806;2023-04-23T04:35:01;27.23;;;14.43;;
16579;SDS011;8402;51.466;6.806;2023-04-23T04:37:31;26.00;;;14.20;;
16579;SDS011;8402;51.466;6.806;2023-04-23T04:40:05;31.60;;;16.60;;
16579;SDS011;8402;51.466;6.806;2023-04-23T04:42:37;25.33;;;14.37;;
16579;SDS011;8402;51.466;6.806;2023-04-23T04:45:08;36.13;;;16.87;;
16579;SDS011;8402;51.466;6.806;2023-04-23T04:47:39;27.13;;;15.37;;
16579;SDS011;8402;51.466;6.806;2023-04-23T04:50:09;30.50;;;16.33;;
16579;SDS011;8402;51.466;6.806;2023-04-23T04:52:42;29.57;;;16.00;;
16579;SDS011;8402;51.466;6.806;2023-04-23T04:55:15;29.03;;;15.70;;
16579;SDS011;8402;51.466;6.806;2023-04-23T04:57:45;30.77;;;17.10;;
16579;SDS011;8402;51.466;6.806;2023-04-23T05:00:19;31.63;;;16.77;;
16579;SDS011;8402;51.466;6.806;2023-04-23T05:02:53;29.63;;;16.03;;
16579;SDS011;8402;51.466;6.806;2023-04-23T05:05:24;31.60;;;17.73;;
16579;SDS011;8402;51.466;6.806;2023-04-23T05:07:55;27.80;;;15.50;;
16579;SDS011;8402;51.466;6.806;2023-04-23T05:10:30;31.43;;;17.50;;
16579;SDS011;8402;51.466;6.806;2023-04-23T05:13:00;29.77;;;15.93;;
16579;SDS011;8402;51.466;6.806;2023-04-23T05:15:30;29.83;;;14.90;;
16579;SDS011;8402;51.466;6.806;2023-04-23T05:18:01;28.57;;;15.83;;
16579;SDS011;8402;51.466;6.806;2023-04-23T05:20:32;28.23;;;15.53;;
16579;SDS011;8402;51.466;6.806;2023-04-23T05:23:02;29.30;;;15.97;;
16579;SDS011;8402;51.466;6.806;2023-04-23T05:25:35;27.43;;;15.10;;
16579;SDS011;8402;51.466;6.806;2023-04-23T05:28:05;28.40;;;15.27;;
16579;SDS011;8402;51.466;6.806;2023-04-23T05:30:35;25.40;;;14.20;;
16579;SDS011;8402;51.466;6.806;2023-04-23T05:33:05;27.40;;;15.97;;
16579;SDS011;8402;51.466;6.806;2023-04-23T05:35:35;27.80;;;14.83;;
16579;SDS011;8402;51.466;6.806;2023-04-23T05:38:05;30.00;;;15.70;;
16579;SDS011;8402;51.466;6.806;2023-04-23T05:40:38;23.93;;;14.07;;
16579;SDS011;8402;51.466;6.806;2023-04-23T05:43:08;25.37;;;15.00;;
16579;SDS011;8402;51.466;6.806;2023-04-23T05:45:41;24.77;;;13.37;;
16579;SDS011;8402;51.466;6.806;2023-04-23T05:48:11;25.37;;;14.37;;
16579;SDS011;8402;51.466;6.806;2023-04-23T05:50:41;24.53;;;13.67;;
16579;SDS011;8402;51.466;6.806;2023-04-23T05:53:11;24.20;;;13.17;;
16579;SDS011;8402;51.466;6.806;2023-04-23T05:55:46;22.57;;;12.80;;
16579;SDS011;8402;51.466;6.806;2023-04-23T05:58:16;26.93;;;14.60;;
16579;SDS011;8402;51.466;6.806;2023-04-23T06:00:46;22.13;;;12.30;;
16579;SDS011;8402;51.466;6.806;2023-04-23T06:03:16;21.73;;;12.63;;
16579;SDS011;8402;51.466;6.806;2023-04-23T06:05:46;21.20;;;13.20;;
16579;SDS011;8402;51.466;6.806;2023-04-23T06:08:16;24.77;;;13.90;;
16579;SDS011;8402;51.466;6.806;2023-04-23T06:10:52;22.53;;;12.77;;
16579;SDS011;8402;51.466;6.806;2023-04-23T06:13:22;24.33;;;12.50;;
16579;SDS011;8402;51.466;6.806;2023-04-23T06:15:53;21.13;;;12.23;;
16579;SDS011;8402;51.466;6.806;2023-04-23T06:18:23;21.07;;;12.97;;
16579;SDS011;8402;51.466;6.806;2023-04-23T06:20:53;20.37;;;12.53;;
16579;SDS011;8402;51.466;6.806;2023-04-23T06:23:23;23.13;;;12.07;;
16579;SDS011;8402;51.466;6.806;2023-04-23T06:25:57;21.40;;;12.57;;
16579;SDS011;8402;51.466;6.806;2023-04-23T06:28:27;23.33;;;12.60;;
16579;SDS011;8402;51.466;6.806;2023-04-23T06:30:57;21.83;;;12.43;;
16579;SDS011;8402;51.466;6.806;2023-04-23T06:33:28;23.97;;;12.60;;
16579;SDS011;8402;51.466;6.806;2023-04-23T06:35:58;19.97;;;12.70;;
16579;SDS011;8402;51.466;6.806;2023-04-23T06:38:28;20.10;;;12.13;;
16579;SDS011;8402;51.466;6.806;2023-04-23T06:41:01;18.77;;;11.80;;
16579;SDS011;8402;51.466;6.806;2023-04-23T06:43:31;21.60;;;12.07;;
16579;SDS011;8402;51.466;6.806;2023-04-23T06:46:01;20.83;;;12.23;;
16579;SDS011;8402;51.466;6.806;2023-04-23T06:48:31;19.33;;;11.90;;
16579;SDS011;8402;51.466;6.806;2023-04-23T06:51:03;20.07;;;11.27;;
16579;SDS011;8402;51.466;6.806;2023-04-23T06:53:33;19.93;;;12.13;;
16579;SDS011;8402;51.466;6.806;2023-04-23T06:56:07;19.70;;;10.97;;
16579;SDS011;8402;51.466;6.806;2023-04-23T06:58:37;19.27;;;11.13;;
16579;SDS011;8402;51.466;6.806;2023-04-23T07:01:07;23.17;;;11.97;;
16579;SDS011;8402;51.466;6.806;2023-04-23T07:03:37;16.60;;;10.10;;
16579;SDS011;8402;51.466;6.806;2023-04-23T07:06:10;20.27;;;11.07;;
16579;SDS011;8402;51.466;6.806;2023-04-23T07:08:41;19.27;;;11.10;;
16579;SDS011;8402;51.466;6.806;2023-04-23T07:11:13;16.73;;;10.27;;
16579;SDS011;8402;51.466;6.806;2023-04-23T07:13:44;15.50;;;10.00;;
16579;SDS011;8402;51.466;6.806;2023-04-23T07:16:14;16.53;;;10.23;;
16579;SDS011;8402;51.466;6.806;2023-04-23T07:18:47;17.73;;;10.33;;
16579;SDS011;8402;51.466;6.806;2023-04-23T07:21:18;14.30;;;9.00;;
16579;SDS011;8402;51.466;6.806;2023-04-23T07:23:48;15.63;;;8.57;;
16579;SDS011;8402;51.466;6.806;2023-04-23T07:26:21;13.40;;;8.67;;
16579;SDS011;8402;51.466;6.806;2023-04-23T07:28:50;18.57;;;8.73;;
16579;SDS011;8402;51.466;6.806;2023-04-23T07:31:21;15.67;;;9.47;;
16579;SDS011;8402;51.466;6.806;2023-04-23T07:33:51;15.73;;;8.77;;
16579;SDS011;8402;51.466;6.806;2023-04-23T07:36:21;12.73;;;8.13;;
16579;SDS011;8402;51.466;6.806;2023-04-23T07:38:52;10.83;;;7.53;;
16579;SDS011;8402;51.466;6.806;2023-04-23T07:41:27;15.13;;;7.70;;
16579;SDS011;8402;51.466;6.806;2023-04-23T07:43:57;12.77;;;7.17;;
16579;SDS011;8402;51.466;6.806;2023-04-23T07:46:27;10.83;;;6.90;;
16579;SDS011;8402;51.466;6.806;2023-04-23T07:48:57;13.37;;;7.33;;
16579;SDS011;8402;51.466;6.806;2023-04-23T07:51:27;11.63;;;7.40;;
16579;SDS011;8402;51.466;6.806;2023-04-23T07:53:57;13.07;;;7.33;;
16579;SDS011;8402;51.466;6.806;2023-04-23T07:56:30;8.83;;;6.20;;
16579;SDS011;8402;51.466;6.806;2023-04-23T07:59:00;9.10;;;5.80;;
16579;SDS011;8402;51.466;6.806;2023-04-23T08:01:31;10.47;;;5.93;;
16579;SDS011;8402;51.466;6.806;2023-04-23T08:04:01;10.03;;;6.37;;
16579;SDS011;8402;51.466;6.806;2023-04-23T08:06:31;10.97;;;5.93;;
16579;SDS011;8402;51.466;6.806;2023-04-23T08:09:05;10.13;;;6.27;;
16579;SDS011;8402;51.466;6.806;2023-04-23T08:11:38;9.50;;;6.00;;
16579;SDS011;8402;51.466;6.806;2023-04-23T08:14:08;10.97;;;5.73;;
16579;SDS011;8402;51.466;6.806;2023-04-23T08:16:38;9.80;;;5.73;;
16579;SDS011;8402;51.466;6.806;2023-04-23T08:19:08;8.53;;;5.23;;
16579;SDS011;8402;51.466;6.806;2023-04-23T08:21:38;10.10;;;5.77;;
16579;SDS011;8402;51.466;6.806;2023-04-23T08:24:08;8.45;;;6.18;;
16579;SDS011;8402;51.466;6.806;2023-04-23T08:26:40;9.53;;;5.73;;
16579;SDS011;8402;51.466;6.806;2023-04-23T08:29:10;8.55;;;4.93;;
16579;SDS011;8402;51.466;6.806;2023-04-23T08:31:40;14.80;;;4.93;;
16579;SDS011;8402;51.466;6.806;2023-04-23T08:34:10;11.25;;;4.95;;
16579;SDS011;8402;51.466;6.806;2023-04-23T08:36:41;10.50;;;4.55;;
16579;SDS011;8402;51.466;6.806;2023-04-23T08:39:11;7.97;;;4.53;;
16579;SDS011;8402;51.466;6.806;2023-04-23T08:41:48;6.70;;;4.10;;
16579;SDS011;8402;51.466;6.806;2023-04-23T08:44:23;9.32;;;4.68;;
16579;SDS011;8402;51.466;6.806;2023-04-23T08:46:54;8.35;;;4.72;;
16579;SDS011;8402;51.466;6.806;2023-04-23T08:49:26;7.35;;;4.95;;
16579;SDS011;8402;51.466;6.806;2023-04-23T08:52:04;7.70;;;3.92;;
16579;SDS011;8402;51.466;6.806;2023-04-23T08:54:45;9.98;;;4.45;;
16579;SDS011;8402;51.466;6.806;2023-04-23T08:57:20;6.35;;;3.83;;
16579;SDS011;8402;51.466;6.806;2023-04-23T08:59:51;8.48;;;3.65;;
16579;SDS011;8402;51.466;6.806;2023-04-23T09:02:21;4.80;;;3.40;;
16579;SDS011;8402;51.466;6.806;2023-04-23T09:04:52;7.82;;;3.83;;
16579;SDS011;8402;51.466;6.806;2023-04-23T09:07:23;10.38;;;3.53;;
16579;SDS011;8402;51.466;6.806;2023-04-23T09:09:53;6.88;;;3.38;;
16579;SDS011;8402;51.466;6.806;2023-04-23T09:12:25;4.63;;;3.22;;
16579;SDS011;8402;51.466;6.806;2023-04-23T09:14:56;6.95;;;3.17;;
16579;SDS011;8402;51.466;6.806;2023-04-23T09:17:27;4.82;;;3.05;;
16579;SDS011;8402;51.466;6.806;2023-04-23T09:19:58;5.25;;;3.10;;
16579;SDS011;8402;51.466;6.806;2023-04-23T09:22:39;5.68;;;3.22;;
16579;SDS011;8402;51.466;6.806;2023-04-23T09:25:13;7.22;;;3.45;;
16579;SDS011;8402;51.466;6.806;2023-04-23T09:27:48;6.68;;;3.75;;
16579;SDS011;8402;51.466;6.806;2023-04-23T09:30:19;4.63;;;3.28;;
16579;SDS011;8402;51.466;6.806;2023-04-23T09:32:53;5.15;;;3.55;;
16579;SDS011;8402;51.466;6.806;2023-04-23T09:35:23;6.90;;;3.58;;
16579;SDS011;8402;51.466;6.806;2023-04-23T09:37:59;7.95;;;3.63;;
16579;SDS011;8402;51.466;6.806;2023-04-23T09:40:33;7.90;;;3.30;;
16579;SDS011;8402;51.466;6.806;2023-04-23T09:43:07;4.70;;;1.88;;
16579;SDS011;8402;51.466;6.806;2023-04-23T09:45:46;7.00;;;2.90;;
16579;SDS011;8402;51.466;6.806;2023-04-23T09:48:17;6.00;;;2.78;;
16579;SDS011;8402;51.466;6.806;2023-04-23T09:50:46;7.20;;;2.70;;
16579;SDS011;8402;51.466;6.806;2023-04-23T09:53:17;4.93;;;2.17;;
16579;SDS011;8402;51.466;6.806;2023-04-23T09:55:49;3.97;;;2.20;;
16579;SDS011;8402;51.466;6.806;2023-04-23T09:58:24;5.40;;;2.53;;
16579;SDS011;8402;51.466;6.806;2023-04-23T10:00:54;4.43;;;2.25;;
16579;SDS011;8402;51.466;6.806;2023-04-23T10:03:36;4.90;;;2.55;;
16579;SDS011;8402;51.466;6.806;2023-04-23T10:06:12;5.97;;;2.53;;
16579;SDS011;8402;51.466;6.806;2023-04-23T10:09:02;8.15;;;2.28;;
16579;SDS011;8402;51.466;6.806;2023-04-23T10:11:33;6.93;;;2.65;;
16579;SDS011;8402;51.466;6.806;2023-04-23T10:14:06;3.28;;;2.05;;
16579;SDS011;8402;51.466;6.806;2023-04-23T10:16:37;6.45;;;2.22;;
16579;SDS011;8402;51.466;6.806;2023-04-23T10:19:14;4.90;;;2.28;;
16579;SDS011;8402;51.466;6.806;2023-04-23T10:21:48;7.18;;;2.60;;
16579;SDS011;8402;51.466;6.806;2023-04-23T10:24:34;7.85;;;2.30;;
16579;SDS011;8402;51.466;6.806;2023-04-23T10:27:10;3.80;;;2.50;;
16579;SDS011;8402;51.466;6.806;2023-04-23T10:30:04;3.88;;;2.47;;
16579;SDS011;8402;51.466;6.806;2023-04-23T10:32:36;6.80;;;4.22;;
16579;SDS011;8402;51.466;6.806;2023-04-23T10:35:07;9.18;;;3.08;;
16579;SDS011;8402;51.466;6.806;2023-04-23T10:37:38;3.45;;;2.10;;
16579;SDS011;8402;51.466;6.806;2023-04-23T10:40:09;5.68;;;2.30;;
16579;SDS011;8402;51.466;6.806;2023-04-23T10:42:42;2.90;;;1.90;;
16579;SDS011;8402;51.466;6.806;2023-04-23T10:45:16;4.80;;;2.22;;
16579;SDS011;8402;51.466;6.806;2023-04-23T10:47:51;6.18;;;2.50;;
16579;SDS011;8402;51.466;6.806;2023-04-23T10:50:23;4.97;;;2.50;;
16579;SDS011;8402;51.466;6.806;2023-04-23T10:52:55;6.07;;;2.35;;
16579;SDS011;8402;51.466;6.806;2023-04-23T10:55:27;3.58;;;2.45;;
16579;SDS011;8402;51.466;6.806;2023-04-23T10:57:59;3.67;;;2.42;;
16579;SDS011;8402;51.466;6.806;2023-04-23T11:00:43;4.57;;;2.28;;
16579;SDS011;8402;51.466;6.806;2023-04-23T11:03:25;3.80;;;2.28;;
16579;SDS011;8402;51.466;6.806;2023-04-23T11:05:59;3.08;;;2.03;;
16579;SDS011;8402;51.466;6.806;2023-04-23T11:08:30;5.10;;;2.17;;
16579;SDS011;8402;51.466;6.806;2023-04-23T11:11:05;3.75;;;2.00;;
16579;SDS011;8402;51.466;6.806;2023-04-23T11:13:36;3.30;;;1.88;;
16579;SDS011;8402;51.466;6.806;2023-04-23T11:16:22;2.67;;;1.75;;
16579;SDS011;8402;51.466;6.806;2023-04-23T11:18:59;3.33;;;1.63;;
16579;SDS011;8402;51.466;6.806;2023-04-23T11:24:27;3.53;;;1.90;;
16579;SDS011;8402;51.466;6.806;2023-04-23T11:26:58;5.15;;;1.73;;
16579;SDS011;8402;51.466;6.806;2023-04-23T11:29:29;4.28;;;2.03;;
16579;SDS011;8402;51.466;6.806;2023-04-23T11:32:02;4.85;;;1.95;;
16579;SDS011;8402;51.466;6.806;2023-04-23T11:34:36;6.22;;;1.60;;
16579;SDS011;8402;51.466;6.806;2023-04-23T11:37:09;3.30;;;1.70;;
16579;SDS011;8402;51.466;6.806;2023-04-23T11:39:41;6.20;;;1.92;;
16579;SDS011;8402;51.466;6.806;2023-04-23T11:42:13;2.53;;;1.60;;
16579;SDS011;8402;51.466;6.806;2023-04-23T11:44:45;5.60;;;1.80;;
16579;SDS011;8402;51.466;6.806;2023-04-23T11:47:18;4.68;;;1.75;;
16579;SDS011;8402;51.466;6.806;2023-04-23T11:49:49;3.80;;;1.52;;
16579;SDS011;8402;51.466;6.806;2023-04-23T11:52:19;2.92;;;1.55;;
16579;SDS011;8402;51.466;6.806;2023-04-23T11:54:49;4.95;;;1.55;;
16579;SDS011;8402;51.466;6.806;2023-04-23T11:57:19;3.25;;;1.70;;
16579;SDS011;8402;51.466;6.806;2023-04-23T11:59:52;3.20;;;1.42;;
16579;SDS011;8402;51.466;6.806;2023-04-23T12:02:25;3.53;;;1.38;;
16579;SDS011;8402;51.466;6.806;2023-04-23T12:04:55;3.42;;;1.15;;
16579;SDS011;8402;51.466;6.806;2023-04-23T12:07:32;5.70;;;1.40;;
16579;SDS011;8402;51.466;6.806;2023-04-23T12:10:04;2.55;;;1.20;;
16579;SDS011;8402;51.466;6.806;2023-04-23T12:12:34;4.70;;;1.45;;
16579;SDS011;8402;51.466;6.806;2023-04-23T12:15:06;2.95;;;1.33;;
16579;SDS011;8402;51.466;6.806;2023-04-23T12:17:39;3.13;;;1.00;;
16579;SDS011;8402;51.466;6.806;2023-04-23T12:20:15;5.22;;;1.15;;
16579;SDS011;8402;51.466;6.806;2023-04-23T12:22:46;2.38;;;1.10;;
16579;SDS011;8402;51.466;6.806;2023-04-23T12:25:20;3.72;;;1.20;;
16579;SDS011;8402;51.466;6.806;2023-04-23T12:27:51;3.00;;;1.08;;
16579;SDS011;8402;51.466;6.806;2023-04-23T12:30:20;4.00;;;0.90;;
16579;SDS011;8402;51.466;6.806;2023-04-23T12:32:53;6.43;;;1.00;;
16579;SDS011;8402;51.466;6.806;2023-04-23T12:35:37;2.83;;;0.90;;
16579;SDS011;8402;51.466;6.806;2023-04-23T12:38:20;3.67;;;1.30;;
16579;SDS011;8402;51.466;6.806;2023-04-23T12:40:53;2.60;;;1.08;;
16579;SDS011;8402;51.466;6.806;2023-04-23T12:43:24;3.88;;;0.90;;
16579;SDS011;8402;51.466;6.806;2023-04-23T12:45:55;6.93;;;0.93;;
16579;SDS011;8402;51.466;6.806;2023-04-23T12:48:28;2.53;;;0.98;;
16579;SDS011;8402;51.466;6.806;2023-04-23T12:50:58;2.30;;;0.90;;
16579;SDS011;8402;51.466;6.806;2023-04-23T12:53:30;3.90;;;1.17;;
16579;SDS011;8402;51.466;6.806;2023-04-23T12:56:00;2.00;;;1.08;;
16579;SDS011;8402;51.466;6.806;2023-04-23T12:58:30;3.00;;;1.20;;
16579;SDS011;8402;51.466;6.806;2023-04-23T13:01:00;2.45;;;1.20;;
16579;SDS011;8402;51.466;6.806;2023-04-23T13:03:33;2.55;;;0.98;;
16579;SDS011;8402;51.466;6.806;2023-04-23T13:06:03;3.33;;;1.00;;
16579;SDS011;8402;51.466;6.806;2023-04-23T13:08:33;2.67;;;0.80;;
16579;SDS011;8402;51.466;6.806;2023-04-23T13:11:03;3.00;;;1.20;;
16579;SDS011;8402;51.466;6.806;2023-04-23T13:13:33;3.17;;;0.90;;
16579;SDS011;8402;51.466;6.806;2023-04-23T13:16:03;5.18;;;1.33;;
16579;SDS011;8402;51.466;6.806;2023-04-23T13:18:36;5.25;;;2.33;;
16579;SDS011;8402;51.466;6.806;2023-04-23T13:21:06;1.75;;;0.95;;
16579;SDS011;8402;51.466;6.806;2023-04-23T13:23:38;2.42;;;1.10;;
16579;SDS011;8402;51.466;6.806;2023-04-23T13:26:07;1.50;;;0.90;;
16579;SDS011;8402;51.466;6.806;2023-04-23T13:28:38;3.85;;;1.10;;
16579;SDS011;8402;51.466;6.806;2023-04-23T13:31:08;2.97;;;1.13;;
16579;SDS011;8402;51.466;6.806;2023-04-23T13:33:43;3.75;;;1.45;;
16579;SDS011;8402;51.466;6.806;2023-04-23T13:36:13;2.53;;;0.93;;
16579;SDS011;8402;51.466;6.806;2023-04-23T13:38:43;2.88;;;1.08;;
16579;SDS011;8402;51.466;6.806;2023-04-23T13:41:13;4.95;;;0.98;;
16579;SDS011;8402;51.466;6.806;2023-04-23T13:43:43;1.38;;;0.88;;
16579;SDS011;8402;51.466;6.806;2023-04-23T13:46:12;2.30;;;0.82;;
16579;SDS011;8402;51.466;6.806;2023-04-23T13:48:45;5.13;;;1.23;;
16579;SDS011;8402;51.466;6.806;2023-04-23T13:51:15;4.78;;;0.90;;
16579;SDS011;8402;51.466;6.806;2023-04-23T13:54:00;3.45;;;1.00;;
16579;SDS011;8402;51.466;6.806;2023-04-23T13:56:30;2.38;;;0.80;;
16579;SDS011;8402;51.466;6.806;2023-04-23T13:59:02;2.30;;;0.80;;
16579;SDS011;8402;51.466;6.806;2023-04-23T14:01:44;3.95;;;0.80;;
16579;SDS011;8402;51.466;6.806;2023-04-23T14:04:19;2.90;;;1.00;;
16579;SDS011;8402;51.466;6.806;2023-04-23T14:06:50;2.28;;;0.98;;
16579;SDS011;8402;51.466;6.806;2023-04-23T14:09:21;4.82;;;1.20;;
16579;SDS011;8402;51.466;6.806;2023-04-23T14:11:51;1.75;;;1.10;;
16579;SDS011;8402;51.466;6.806;2023-04-23T14:14:21;4.63;;;1.10;;
16579;SDS011;8402;51.466;6.806;2023-04-23T14:16:51;2.72;;;1.10;;
16579;SDS011;8402;51.466;6.806;2023-04-23T14:19:24;2.75;;;1.20;;
16579;SDS011;8402;51.466;6.806;2023-04-23T14:21:55;1.50;;;0.90;;
16579;SDS011;8402;51.466;6.806;2023-04-23T14:24:28;2.55;;;1.02;;
16579;SDS011;8402;51.466;6.806;2023-04-23T14:27:02;5.65;;;1.27;;
16579;SDS011;8402;51.466;6.806;2023-04-23T14:29:34;1.85;;;1.00;;
16579;SDS011;8402;51.466;6.806;2023-04-23T14:32:08;1.52;;;0.80;;
16579;SDS011;8402;51.466;6.806;2023-04-23T14:34:42;2.08;;;0.73;;
16579;SDS011;8402;51.466;6.806;2023-04-23T14:37:12;2.90;;;1.27;;
16579;SDS011;8402;51.466;6.806;2023-04-23T14:39:43;3.67;;;1.13;;
16579;SDS011;8402;51.466;6.806;2023-04-23T14:42:13;2.28;;;0.95;;
16579;SDS011;8402;51.466;6.806;2023-04-23T14:44:43;2.75;;;1.02;;
16579;SDS011;8402;51.466;6.806;2023-04-23T14:47:13;3.65;;;1.30;;
16579;SDS011;8402;51.466;6.806;2023-04-23T14:49:48;4.43;;;1.17;;
16579;SDS011;8402;51.466;6.806;2023-04-23T14:52:18;2.15;;;0.90;;
16579;SDS011;8402;51.466;6.806;2023-04-23T14:54:51;2.08;;;1.10;;
16579;SDS011;8402;51.466;6.806;2023-04-23T14:57:21;4.45;;;0.93;;
16579;SDS011;8402;51.466;6.806;2023-04-23T14:59:51;1.80;;;0.90;;
16579;SDS011;8402;51.466;6.806;2023-04-23T15:02:22;2.83;;;1.10;;
16579;SDS011;8402;51.466;6.806;2023-04-23T15:04:55;4.28;;;1.40;;
16579;SDS011;8402;51.466;6.806;2023-04-23T15:07:25;2.05;;;0.80;;
16579;SDS011;8402;51.466;6.806;2023-04-23T15:09:57;2.13;;;1.00;;
16579;SDS011;8402;51.466;6.806;2023-04-23T15:12:42;2.58;;;1.23;;
16579;SDS011;8402;51.466;6.806;2023-04-23T15:15:37;3.10;;;0.80;;
16579;SDS011;8402;51.466;6.806;2023-04-23T15:18:14;8.00;;;1.00;;